Главная страница
METAR-TAF:

METAR-TAF

Аэропорты :

Нади

Нанди, Фиджи

широта: 17-45S, долгота: 177-27E, высота над уровнем моря: 13 м

Текущие метеонаблюдения

Эта сводка был подготовлена 31 минут назад, в 10:00 UTC
Ветер 4 Узел от восточно-юго-восточный
Температура 26°C
Влажность 94%
Давление 1011 hPa
Видимость 10 км и более
небольшая облачность на высоте 3000 фута

METAR: NFFN 241000Z 12004KT 9999 FEW030 26/25 Q1011 NOSIG

Время: 22:31 (10:31 UTC)

Прогноз

Эта сводка был подготовлена 5 часа и 26 минут назад, в 05:05 UTC
Прогноз действительный с 24-го 06 UTC до 25-го 06 UTC
Ветер 5 Узел от юго-восточный
Видимость 10 км и более
Отдельные облака на высоте 2800 фута
Отдельные облака на высоте 4800 фута
изменения
С 24-го 22 UTC до 24-го 24 UTC
Ветер 10 Узел от северо-западный

TAF: NFFN 240505Z 2406/2506 14005KT 9999 SCT028 SCT048 BECMG 2422/2424 32010KT

Метеонаблюдения и прогнозы для более 4000 аэропортов (сводки METAR и TAF).

Имеющиеся станции представлены на карте желтыми и красными точками.

Чтобы увидеть название станции, наведите на нее мышь.

Затем щелкните, чтобы увидеть метеонаблюдения и метеопрогнозы.

Управление картой: чтобы увеличить масштаб, щелкните зеленые кнопки с черным крестиком; чтобы уменьшить масштаб, щелкните зеленую кнопку с тире; для просмотра соседних карт щелкайте зеленые стрелки.


METAR-TAF: